createdAt,value
2023-05-06T00:00:44.760Z,57.03
2023-05-06T00:02:26.169Z,56.22
2023-05-06T00:04:07.692Z,56.85
2023-05-06T00:05:51.188Z,56.99
2023-05-06T00:07:32.514Z,57.76
2023-05-06T00:09:13.799Z,57.34
2023-05-06T00:10:55.090Z,57.90
2023-05-06T00:12:36.387Z,57.22
2023-05-06T00:14:17.801Z,56.99
2023-05-06T00:15:59.125Z,56.86
2023-05-06T00:17:40.500Z,55.41
2023-05-06T00:19:21.856Z,54.96
2023-05-06T00:21:03.117Z,54.50
2023-05-06T00:22:44.404Z,53.74
2023-05-06T00:24:25.739Z,52.03
2023-05-06T00:26:07.044Z,51.76
2023-05-06T00:27:48.334Z,54.45
2023-05-06T00:29:29.676Z,54.15
2023-05-06T00:31:10.991Z,53.87
2023-05-06T00:32:52.361Z,54.19
2023-05-06T00:34:33.725Z,53.64
2023-05-06T00:36:15.004Z,53.11
2023-05-06T00:37:56.272Z,52.92
2023-05-06T00:39:37.583Z,54.39
2023-05-06T00:41:18.927Z,53.80
2023-05-06T00:43:00.261Z,54.56
2023-05-06T00:44:41.559Z,53.66
2023-05-06T00:46:23.021Z,54.18
2023-05-06T00:48:04.451Z,52.44
2023-05-06T00:49:45.753Z,51.32
2023-05-06T00:51:27.058Z,51.98
2023-05-06T00:53:08.370Z,52.50
2023-05-06T00:54:49.706Z,53.33
2023-05-06T00:56:30.998Z,54.25
2023-05-06T00:58:12.280Z,54.15
2023-05-06T00:59:53.621Z,52.31
2023-05-06T01:01:35.098Z,52.11
2023-05-06T01:03:16.584Z,50.75
2023-05-06T01:04:57.980Z,50.58
2023-05-06T01:06:39.298Z,50.12
2023-05-06T01:08:20.607Z,51.79
2023-05-06T01:10:01.893Z,51.66
2023-05-06T01:11:43.152Z,51.30
2023-05-06T01:13:24.453Z,50.84
2023-05-06T01:15:05.766Z,50.52
2023-05-06T01:16:47.085Z,52.51
2023-05-06T01:18:28.405Z,54.31
2023-05-06T01:20:09.696Z,54.86
2023-05-06T01:21:51.016Z,54.81
2023-05-06T01:23:32.633Z,53.21
2023-05-06T01:25:14.012Z,52.14
2023-05-06T01:26:55.270Z,52.15
2023-05-06T01:28:36.567Z,52.85
2023-05-06T01:30:17.867Z,53.62
2023-05-06T01:31:59.174Z,55.15
2023-05-06T01:33:40.490Z,56.08
2023-05-06T01:35:21.783Z,56.10
2023-05-06T01:37:03.077Z,55.63
2023-05-06T01:38:44.409Z,54.98
2023-05-06T01:40:25.720Z,54.23
2023-05-06T01:42:06.989Z,53.32
2023-05-06T01:43:48.384Z,52.57
2023-05-06T01:45:29.750Z,52.03
2023-05-06T01:47:11.073Z,50.55
2023-05-06T01:48:52.361Z,49.54
2023-05-06T01:50:33.662Z,50.08
2023-05-06T01:52:14.933Z,50.41
2023-05-06T01:53:56.215Z,50.88
2023-05-06T01:55:37.513Z,49.79
2023-05-06T01:57:18.798Z,49.85
2023-05-06T01:59:00.229Z,51.69
2023-05-06T02:00:41.625Z,51.50
2023-05-06T02:02:22.951Z,51.92
2023-05-06T02:04:04.364Z,51.70
2023-05-06T02:05:45.733Z,51.70
2023-05-06T02:07:27.039Z,51.10
2023-05-06T02:09:08.333Z,49.74
2023-05-06T02:10:49.632Z,49.70
2023-05-06T02:12:30.973Z,49.42
2023-05-06T02:14:12.268Z,48.56
2023-05-06T02:15:53.607Z,48.59
2023-05-06T02:17:34.939Z,49.13
2023-05-06T02:19:16.220Z,50.14
2023-05-06T02:20:57.517Z,50.64
2023-05-06T02:22:38.885Z,53.88
2023-05-06T02:24:20.174Z,53.15
2023-05-06T02:26:01.466Z,53.38
2023-05-06T02:27:42.795Z,52.25
2023-05-06T02:29:24.051Z,53.41
2023-05-06T02:31:05.359Z,52.91
2023-05-06T02:32:46.722Z,53.26
2023-05-06T02:34:28.065Z,53.45
2023-05-06T02:36:09.380Z,54.61
2023-05-06T02:37:50.751Z,54.57
2023-05-06T02:39:32.024Z,54.90
2023-05-06T02:41:13.294Z,55.10
2023-05-06T02:42:54.674Z,56.64
2023-05-06T02:44:36.003Z,56.62
2023-05-06T02:46:17.351Z,55.25
2023-05-06T02:47:58.753Z,55.17
2023-05-06T02:49:40.069Z,54.92
2023-05-06T02:51:21.378Z,54.74
2023-05-06T02:53:02.684Z,54.65
2023-05-06T02:54:43.989Z,54.01
2023-05-06T02:56:25.259Z,53.98
2023-05-06T02:58:06.578Z,52.52
2023-05-06T02:59:47.920Z,53.86
2023-05-06T03:01:29.276Z,54.76
2023-05-06T03:03:10.690Z,54.38
2023-05-06T03:04:51.986Z,54.05
2023-05-06T03:06:33.279Z,53.95
2023-05-06T03:08:14.636Z,53.37
2023-05-06T03:09:55.931Z,54.05
2023-05-06T03:11:37.216Z,53.77
2023-05-06T03:13:18.579Z,52.37
2023-05-06T03:14:59.887Z,50.79
2023-05-06T03:16:41.224Z,52.13
2023-05-06T03:18:22.570Z,51.97
2023-05-06T03:20:03.856Z,52.25
2023-05-06T03:21:45.178Z,51.07
2023-05-06T03:23:26.532Z,49.94
2023-05-06T03:25:08.238Z,49.32
2023-05-06T03:26:49.792Z,48.44
2023-05-06T03:28:31.112Z,48.51
2023-05-06T03:30:12.377Z,49.86
2023-05-06T03:31:53.781Z,50.43
2023-05-06T03:33:35.122Z,51.21
2023-05-06T03:35:16.394Z,52.08
2023-05-06T03:36:57.698Z,52.07
2023-05-06T03:38:38.992Z,51.56
2023-05-06T03:40:20.258Z,50.48
2023-05-06T03:42:01.584Z,50.75
2023-05-06T03:43:42.865Z,50.27
2023-05-06T03:45:24.154Z,50.70
2023-05-06T03:47:05.486Z,51.21
2023-05-06T03:48:46.745Z,51.06
2023-05-06T03:50:28.050Z,52.60
2023-05-06T03:52:09.386Z,53.10
2023-05-06T03:53:52.353Z,53.74
2023-05-06T03:55:35.464Z,53.64
2023-05-06T03:57:16.810Z,54.25
2023-05-06T03:58:58.104Z,55.07
2023-05-06T04:00:39.404Z,54.55
2023-05-06T04:02:20.760Z,56.76
2023-05-06T04:04:02.225Z,56.14
2023-05-06T04:05:43.622Z,54.87
2023-05-06T04:07:24.930Z,53.08
2023-05-06T04:09:06.218Z,52.23
2023-05-06T04:10:47.596Z,52.67
2023-05-06T04:12:28.935Z,53.43
2023-05-06T04:14:10.256Z,52.51
2023-05-06T04:15:51.570Z,52.52
2023-05-06T04:17:32.901Z,51.03
2023-05-06T04:19:14.207Z,50.42
2023-05-06T04:20:55.485Z,50.60
2023-05-06T04:22:36.794Z,51.62
2023-05-06T04:24:18.096Z,51.89
2023-05-06T04:25:59.654Z,52.84
2023-05-06T04:27:40.968Z,53.37
2023-05-06T04:29:22.274Z,53.36
2023-05-06T04:31:03.594Z,54.52
2023-05-06T04:32:44.958Z,55.08
2023-05-06T04:34:26.266Z,55.21
2023-05-06T04:36:07.539Z,55.76
2023-05-06T04:37:48.823Z,55.51
2023-05-06T04:39:30.080Z,57.00
2023-05-06T04:41:11.380Z,56.82
2023-05-06T04:42:52.657Z,56.45
2023-05-06T04:44:34.165Z,55.15
2023-05-06T04:46:15.615Z,54.47
2023-05-06T04:47:56.949Z,54.73
2023-05-06T04:49:38.404Z,53.97
2023-05-06T04:51:19.802Z,54.37
2023-05-06T04:53:01.092Z,54.16
2023-05-06T04:54:44.166Z,53.26
2023-05-06T04:56:26.757Z,54.26
2023-05-06T04:58:08.057Z,53.90
2023-05-06T04:59:49.350Z,54.22
2023-05-06T05:01:30.721Z,53.88
2023-05-06T05:03:12.153Z,54.38
2023-05-06T05:04:53.496Z,53.91
2023-05-06T05:06:34.833Z,54.58
2023-05-06T05:08:16.122Z,53.10
2023-05-06T05:09:57.397Z,54.17
2023-05-06T05:11:38.736Z,54.17
2023-05-06T05:13:20.157Z,52.48
2023-05-06T05:15:01.495Z,53.17
2023-05-06T05:16:42.822Z,54.21
2023-05-06T05:18:24.370Z,54.85
2023-05-06T05:20:05.684Z,54.74
2023-05-06T05:21:47.006Z,54.35
2023-05-06T05:23:28.327Z,53.00
2023-05-06T05:25:09.879Z,53.27
2023-05-06T05:26:51.510Z,52.65
2023-05-06T05:28:32.817Z,52.60
2023-05-06T05:30:14.085Z,53.64
2023-05-06T05:31:55.485Z,52.81
2023-05-06T05:33:36.772Z,52.44
2023-05-06T05:35:18.140Z,53.63
2023-05-06T05:36:59.408Z,52.81
2023-05-06T05:38:40.719Z,52.00
2023-05-06T05:40:22.010Z,52.36
2023-05-06T05:42:03.316Z,51.12
2023-05-06T05:43:44.617Z,52.09
2023-05-06T05:45:25.894Z,52.70
2023-05-06T05:47:07.376Z,52.60
2023-05-06T05:48:48.695Z,52.05
2023-05-06T05:50:29.984Z,51.54
2023-05-06T05:52:11.278Z,51.68
2023-05-06T05:53:52.584Z,51.59
2023-05-06T05:55:33.861Z,52.13
2023-05-06T05:57:15.200Z,51.75
2023-05-06T05:58:56.688Z,52.58
2023-05-06T06:00:37.959Z,52.73
2023-05-06T06:02:19.319Z,53.29
2023-05-06T06:04:00.910Z,52.14
2023-05-06T06:05:42.285Z,51.63
2023-05-06T06:07:23.586Z,50.88
2023-05-06T06:09:04.886Z,49.69
2023-05-06T06:10:46.173Z,49.99
2023-05-06T06:12:27.461Z,50.22
2023-05-06T06:14:08.773Z,49.54
2023-05-06T06:15:50.132Z,51.75
2023-05-06T06:17:31.514Z,51.08
2023-05-06T06:19:12.836Z,52.32
2023-05-06T06:20:54.131Z,51.26
2023-05-06T06:22:35.474Z,51.17
2023-05-06T06:24:16.792Z,51.08
2023-05-06T06:25:58.115Z,50.80
2023-05-06T06:27:39.395Z,49.85
2023-05-06T06:29:20.710Z,51.84
2023-05-06T06:31:02.115Z,50.75
2023-05-06T06:32:43.483Z,50.66
2023-05-06T06:34:24.904Z,49.26
2023-05-06T06:36:06.242Z,50.43
2023-05-06T06:37:47.590Z,50.96
2023-05-06T06:39:28.923Z,52.17
2023-05-06T06:41:10.185Z,53.07
2023-05-06T06:42:51.524Z,51.79
2023-05-06T06:44:32.843Z,51.42
2023-05-06T06:46:14.148Z,52.23
2023-05-06T06:47:55.655Z,52.36
2023-05-06T06:49:37.065Z,52.26
2023-05-06T06:51:18.332Z,51.66
2023-05-06T06:52:59.616Z,51.90
2023-05-06T06:54:40.946Z,51.72
2023-05-06T06:56:22.202Z,51.27
2023-05-06T06:58:03.507Z,50.17
2023-05-06T06:59:44.810Z,49.67
2023-05-06T07:01:26.102Z,48.83
2023-05-06T07:03:07.468Z,48.94
2023-05-06T07:04:48.793Z,48.74
2023-05-06T07:06:30.073Z,48.14
2023-05-06T07:08:11.360Z,48.78
2023-05-06T07:09:52.679Z,48.73
2023-05-06T07:11:33.985Z,47.43
2023-05-06T07:13:15.299Z,45.23
2023-05-06T07:14:56.597Z,43.28
2023-05-06T07:16:37.987Z,42.29
2023-05-06T07:18:19.383Z,42.50
2023-05-06T07:20:00.776Z,42.25
2023-05-06T07:21:42.113Z,40.63
2023-05-06T07:23:23.530Z,39.51
2023-05-06T07:25:04.845Z,40.62
2023-05-06T07:26:46.148Z,39.90
2023-05-06T07:28:27.519Z,39.97
2023-05-06T07:30:08.856Z,38.30
2023-05-06T07:31:50.141Z,38.35
2023-05-06T07:33:31.450Z,38.60
2023-05-06T07:35:13.012Z,37.64
2023-05-06T07:36:54.345Z,39.87
2023-05-06T07:38:35.647Z,39.26
2023-05-06T07:40:16.952Z,39.87
2023-05-06T07:41:58.263Z,39.14
2023-05-06T07:43:39.534Z,39.64
2023-05-06T07:45:20.877Z,38.79
2023-05-06T07:47:02.511Z,38.03
2023-05-06T07:48:43.928Z,38.34
2023-05-06T07:50:25.230Z,37.76
2023-05-06T07:52:07.729Z,36.73
2023-05-06T07:53:49.006Z,37.38
2023-05-06T07:55:30.306Z,36.69
2023-05-06T07:57:11.621Z,36.04
2023-05-06T07:58:52.914Z,35.68
2023-05-06T08:00:34.236Z,36.02
2023-05-06T08:02:15.601Z,37.33
2023-05-06T08:03:57.019Z,36.08
2023-05-06T08:05:38.374Z,36.26
2023-05-06T08:07:19.696Z,36.07
2023-05-06T08:09:01.012Z,35.18
2023-05-06T08:10:42.297Z,34.44
2023-05-06T08:12:23.628Z,34.36
2023-05-06T08:14:04.937Z,35.20
2023-05-06T08:15:46.282Z,32.30
2023-05-06T08:17:27.633Z,32.03
2023-05-06T08:19:08.976Z,34.92
2023-05-06T08:20:50.289Z,33.18
2023-05-06T08:22:31.696Z,33.66
2023-05-06T08:24:13.020Z,34.36
2023-05-06T08:25:54.303Z,34.12
2023-05-06T08:27:35.609Z,34.07
2023-05-06T08:29:16.919Z,35.03
2023-05-06T08:30:58.240Z,35.60
2023-05-06T08:32:39.605Z,36.04
2023-05-06T08:34:20.940Z,35.65
2023-05-06T08:36:02.242Z,35.99
2023-05-06T08:37:44.434Z,34.79
2023-05-06T08:39:25.737Z,35.74
2023-05-06T08:41:07.018Z,37.12
2023-05-06T08:42:48.342Z,36.62
2023-05-06T08:44:29.707Z,36.36
2023-05-06T08:46:11.024Z,35.92
2023-05-06T08:47:52.381Z,36.11
2023-05-06T08:49:33.711Z,37.98
2023-05-06T08:51:15.030Z,35.59
2023-05-06T08:52:56.325Z,37.08
2023-05-06T08:54:37.626Z,35.66
2023-05-06T08:56:18.949Z,34.80
2023-05-06T08:58:00.267Z,35.45
2023-05-06T08:59:41.566Z,35.03
2023-05-06T09:01:22.986Z,35.85
2023-05-06T09:03:04.458Z,35.99
2023-05-06T09:04:45.862Z,35.04
2023-05-06T09:06:27.181Z,34.27
2023-05-06T09:08:08.690Z,35.81
2023-05-06T09:09:49.986Z,34.07
2023-05-06T09:11:31.287Z,34.89
2023-05-06T09:13:12.624Z,35.47
2023-05-06T09:14:53.945Z,34.37
2023-05-06T09:16:35.302Z,35.35
2023-05-06T09:18:16.638Z,35.87
2023-05-06T09:19:57.914Z,36.59
2023-05-06T09:21:39.235Z,36.25
2023-05-06T09:23:20.540Z,34.99
2023-05-06T09:25:01.877Z,35.38
2023-05-06T09:26:43.182Z,36.49
2023-05-06T09:28:24.479Z,34.95
2023-05-06T09:30:05.768Z,34.92
2023-05-06T09:31:47.097Z,34.84
2023-05-06T09:33:28.434Z,35.13
2023-05-06T09:35:09.974Z,33.69
2023-05-06T09:36:51.541Z,34.09
2023-05-06T09:38:32.858Z,34.61
2023-05-06T09:40:14.172Z,34.82
2023-05-06T09:41:55.502Z,33.45
2023-05-06T09:43:36.815Z,33.22
2023-05-06T09:45:18.129Z,32.87
2023-05-06T09:46:59.485Z,34.42
2023-05-06T09:48:40.796Z,34.27
2023-05-06T09:50:22.089Z,34.07
2023-05-06T09:52:03.430Z,33.61
2023-05-06T09:53:44.734Z,34.81
2023-05-06T09:55:26.016Z,33.53
2023-05-06T09:57:07.403Z,34.35
2023-05-06T09:58:48.721Z,35.09
2023-05-06T10:00:30.035Z,32.69
2023-05-06T10:02:11.385Z,35.02
2023-05-06T10:03:52.839Z,35.31
2023-05-06T10:05:34.201Z,34.00
2023-05-06T10:07:15.484Z,34.85
2023-05-06T10:08:56.799Z,33.66
2023-05-06T10:10:38.110Z,35.01
2023-05-06T10:12:19.380Z,34.03
2023-05-06T10:14:00.705Z,32.41
2023-05-06T10:15:42.064Z,32.26
2023-05-06T10:17:23.446Z,31.96
2023-05-06T10:19:04.744Z,33.23
2023-05-06T10:20:46.082Z,32.29
2023-05-06T10:22:27.365Z,31.91
2023-05-06T10:24:08.656Z,32.46
2023-05-06T10:25:49.980Z,31.74
2023-05-06T10:27:31.244Z,31.23
2023-05-06T10:29:12.524Z,31.24
2023-05-06T10:30:53.801Z,30.90
2023-05-06T10:32:35.128Z,30.75
2023-05-06T10:34:16.485Z,29.85
2023-05-06T10:35:57.808Z,29.88
2023-05-06T10:37:39.088Z,28.31
2023-05-06T10:39:20.364Z,28.99
2023-05-06T10:41:01.693Z,29.43
2023-05-06T10:42:43.056Z,30.89
2023-05-06T10:44:24.334Z,29.87
2023-05-06T10:46:05.765Z,29.16
2023-05-06T10:47:47.180Z,28.83
2023-05-06T10:49:28.526Z,27.29
2023-05-06T10:51:09.812Z,27.32
2023-05-06T10:52:51.076Z,29.49
2023-05-06T10:54:32.405Z,27.69
2023-05-06T10:56:13.681Z,28.10
2023-05-06T10:57:54.947Z,28.45
2023-05-06T10:59:36.241Z,28.43
2023-05-06T11:01:17.653Z,28.82
2023-05-06T11:02:59.019Z,26.99
2023-05-06T11:04:40.367Z,28.50
2023-05-06T11:06:21.648Z,28.77
2023-05-06T11:08:02.944Z,29.36
2023-05-06T11:09:44.229Z,30.16
2023-05-06T11:11:25.527Z,30.64
2023-05-06T11:13:06.909Z,30.51
2023-05-06T11:14:48.224Z,30.08
2023-05-06T11:16:29.548Z,29.58
2023-05-06T11:18:10.857Z,28.84
2023-05-06T11:19:52.120Z,28.74
2023-05-06T11:21:33.459Z,27.76
2023-05-06T11:23:14.766Z,27.72
2023-05-06T11:24:56.038Z,28.50
2023-05-06T11:26:37.316Z,27.83
2023-05-06T11:28:18.640Z,28.12
2023-05-06T11:29:59.941Z,27.17
2023-05-06T11:31:41.225Z,27.22
2023-05-06T11:33:22.534Z,27.99
2023-05-06T11:35:03.807Z,28.00
2023-05-06T11:36:45.116Z,27.75
2023-05-06T11:38:26.416Z,27.73
2023-05-06T11:40:07.732Z,27.87
2023-05-06T11:41:49.036Z,27.94
2023-05-06T11:43:30.331Z,27.35
2023-05-06T11:45:11.641Z,27.62
2023-05-06T11:46:53.020Z,29.11
2023-05-06T11:48:34.380Z,29.48
2023-05-06T11:50:15.678Z,27.76
2023-05-06T11:51:56.962Z,28.48
2023-05-06T11:53:38.284Z,28.53
2023-05-06T11:55:19.552Z,28.13
2023-05-06T11:57:00.835Z,28.23
2023-05-06T11:58:42.117Z,27.87
2023-05-06T12:00:23.412Z,28.98
2023-05-06T12:02:04.694Z,27.11
2023-05-06T12:03:46.184Z,27.21
2023-05-06T12:05:27.622Z,27.02
2023-05-06T12:07:08.942Z,27.28
2023-05-06T12:08:50.255Z,26.11
2023-05-06T12:10:31.567Z,27.20
2023-05-06T12:12:12.857Z,27.02
2023-05-06T12:13:54.151Z,26.57
2023-05-06T12:15:35.543Z,26.70
2023-05-06T12:17:16.841Z,26.71
2023-05-06T12:18:58.163Z,27.02
2023-05-06T12:20:39.454Z,25.85
2023-05-06T12:22:20.909Z,27.66
2023-05-06T12:24:02.223Z,26.61
2023-05-06T12:25:43.533Z,26.82
2023-05-06T12:27:24.835Z,27.40
2023-05-06T12:29:06.125Z,27.91
2023-05-06T12:30:47.430Z,27.64
2023-05-06T12:32:28.734Z,27.09
2023-05-06T12:34:10.062Z,28.18
2023-05-06T12:35:51.347Z,27.98
2023-05-06T12:37:32.639Z,26.25
2023-05-06T12:39:13.928Z,26.24
2023-05-06T12:40:55.238Z,26.64
2023-05-06T12:42:36.534Z,26.51
2023-05-06T12:44:17.845Z,26.67
2023-05-06T12:45:59.153Z,26.87
2023-05-06T12:47:40.481Z,27.01
2023-05-06T12:49:21.850Z,26.52
2023-05-06T12:51:03.221Z,27.07
2023-05-06T12:52:44.509Z,26.40
2023-05-06T12:54:25.785Z,26.30
2023-05-06T12:56:07.118Z,26.95
2023-05-06T12:57:48.399Z,26.70
2023-05-06T12:59:29.718Z,27.38
2023-05-06T13:01:10.995Z,27.48
2023-05-06T13:02:52.338Z,27.53
2023-05-06T13:04:33.821Z,27.00
2023-05-06T13:06:15.105Z,26.93
2023-05-06T13:07:56.454Z,27.57
2023-05-06T13:09:37.760Z,26.77
2023-05-06T13:11:19.054Z,26.83
2023-05-06T13:13:00.402Z,26.20
2023-05-06T13:14:41.728Z,26.51
2023-05-06T13:16:23.033Z,26.24
2023-05-06T13:18:04.428Z,26.67
2023-05-06T13:19:45.764Z,25.82
2023-05-06T13:21:27.060Z,26.53
2023-05-06T13:23:08.359Z,25.94
2023-05-06T13:24:49.663Z,26.12
2023-05-06T13:26:30.958Z,26.18
2023-05-06T13:28:12.257Z,26.71
2023-05-06T13:29:53.564Z,25.92
2023-05-06T13:31:34.978Z,27.08
2023-05-06T13:33:16.326Z,26.04
2023-05-06T13:34:57.618Z,27.27
2023-05-06T13:36:38.903Z,27.88
2023-05-06T13:38:20.176Z,28.52
2023-05-06T13:40:01.471Z,26.99
2023-05-06T13:41:42.788Z,27.64
2023-05-06T13:43:24.115Z,27.51
2023-05-06T13:45:05.474Z,27.36
2023-05-06T13:46:46.852Z,27.34
2023-05-06T13:48:28.167Z,27.36
2023-05-06T13:50:09.596Z,27.53
2023-05-06T13:51:50.965Z,27.87
2023-05-06T13:53:32.270Z,26.57
2023-05-06T13:55:13.547Z,27.68
2023-05-06T13:56:54.838Z,26.85
2023-05-06T13:58:36.150Z,26.96
2023-05-06T14:00:17.467Z,27.41
2023-05-06T14:01:58.806Z,28.01
2023-05-06T14:03:40.140Z,27.50
2023-05-06T14:05:21.603Z,26.96
2023-05-06T14:07:02.957Z,26.95
2023-05-06T14:08:44.323Z,27.77
2023-05-06T14:10:25.640Z,29.08
2023-05-06T14:12:06.917Z,28.42
2023-05-06T14:13:48.231Z,28.12
2023-05-06T14:15:29.543Z,29.10
2023-05-06T14:17:10.836Z,27.37
2023-05-06T14:18:52.120Z,27.19
2023-05-06T14:20:33.414Z,27.57
2023-05-06T14:22:14.740Z,27.49
2023-05-06T14:23:56.050Z,27.87
2023-05-06T14:25:37.461Z,28.38
2023-05-06T14:27:18.825Z,28.70
2023-05-06T14:29:00.492Z,29.39
2023-05-06T14:30:42.206Z,29.84
2023-05-06T14:32:24.206Z,29.97
2023-05-06T14:34:06.460Z,30.84
2023-05-06T14:35:50.286Z,30.82
2023-05-06T14:37:32.838Z,31.18
2023-05-06T14:39:14.153Z,31.21
2023-05-06T14:40:56.707Z,30.77
2023-05-06T14:42:39.741Z,31.32
2023-05-06T14:44:21.047Z,31.63
2023-05-06T14:46:02.382Z,32.03
2023-05-06T14:47:43.800Z,31.49
2023-05-06T14:49:25.169Z,30.50
2023-05-06T14:51:06.472Z,29.41
2023-05-06T14:52:47.778Z,29.88
2023-05-06T14:54:29.733Z,29.54
2023-05-06T14:56:14.331Z,29.96
2023-05-06T14:57:55.707Z,29.03
2023-05-06T14:59:37.047Z,28.86
2023-05-06T15:01:18.481Z,28.86
2023-05-06T15:03:00.129Z,29.33
2023-05-06T15:04:41.453Z,29.80
2023-05-06T15:06:22.876Z,30.24
2023-05-06T15:08:04.385Z,29.91
2023-05-06T15:09:45.750Z,30.09
2023-05-06T15:11:27.053Z,30.17
2023-05-06T15:13:08.398Z,30.25
2023-05-06T15:14:49.749Z,30.51
2023-05-06T15:16:31.107Z,30.85
2023-05-06T15:18:12.441Z,30.97
2023-05-06T15:19:53.719Z,30.77
2023-05-06T15:21:35.063Z,30.50
2023-05-06T15:23:16.379Z,31.01
2023-05-06T15:24:57.689Z,31.47
2023-05-06T15:26:39.006Z,32.13
2023-05-06T15:28:21.363Z,32.27
2023-05-06T15:30:04.349Z,32.43
2023-05-06T15:31:45.766Z,32.01
2023-05-06T15:33:27.136Z,31.33
2023-05-06T15:35:08.606Z,31.25
2023-05-06T15:36:50.138Z,31.52
2023-05-06T15:38:31.419Z,31.54
2023-05-06T15:40:12.870Z,32.14
2023-05-06T15:41:54.396Z,31.71
2023-05-06T15:43:37.733Z,31.82
2023-05-06T15:45:20.018Z,32.02
2023-05-06T15:47:01.301Z,31.32
2023-05-06T15:48:43.140Z,31.45
2023-05-06T15:50:32.704Z,32.69
2023-05-06T15:52:14.441Z,31.77
2023-05-06T15:53:55.792Z,32.02
2023-05-06T15:55:46.605Z,32.05
2023-05-06T15:57:31.291Z,32.36
2023-05-06T15:59:12.688Z,33.27
2023-05-06T16:00:54.151Z,33.08
2023-05-06T16:02:35.678Z,32.48
2023-05-06T16:04:17.302Z,33.22
2023-05-06T16:05:58.791Z,32.61
2023-05-06T16:07:40.108Z,32.40
2023-05-06T16:09:21.484Z,32.98
2023-05-06T16:11:03.704Z,32.77
2023-05-06T16:12:45.416Z,32.53
2023-05-06T16:14:26.961Z,32.67
2023-05-06T16:16:08.296Z,32.38
2023-05-06T16:17:49.716Z,32.16
2023-05-06T16:19:31.413Z,32.91
2023-05-06T16:21:12.950Z,32.69
2023-05-06T16:22:54.298Z,32.88
2023-05-06T16:24:35.846Z,32.45
2023-05-06T16:26:17.477Z,33.16
2023-05-06T16:27:58.778Z,33.49
2023-05-06T16:29:40.305Z,31.60
2023-05-06T16:31:21.782Z,31.18
2023-05-06T16:33:03.356Z,31.57
2023-05-06T16:34:44.915Z,31.77
2023-05-06T16:36:26.196Z,31.87
2023-05-06T16:38:07.454Z,32.43
2023-05-06T16:39:48.767Z,32.07
2023-05-06T16:41:30.072Z,31.65
2023-05-06T16:43:12.258Z,31.19
2023-05-06T16:44:54.214Z,30.49
2023-05-06T16:46:35.635Z,31.36
2023-05-06T16:48:17.270Z,31.21
2023-05-06T16:49:58.845Z,32.15
2023-05-06T16:51:40.149Z,32.35
2023-05-06T16:53:21.601Z,32.56
2023-05-06T16:55:03.050Z,33.19
2023-05-06T16:56:52.126Z,33.40
2023-05-06T16:58:34.189Z,32.43
2023-05-06T17:00:15.522Z,33.00
2023-05-06T17:01:56.891Z,33.74
2023-05-06T17:03:38.413Z,34.45
2023-05-06T17:05:22.037Z,35.82
2023-05-06T17:07:03.825Z,33.37
2023-05-06T17:08:45.567Z,33.35
2023-05-06T17:10:26.952Z,33.96
2023-05-06T17:12:08.267Z,33.86
2023-05-06T17:13:49.563Z,32.81
2023-05-06T17:15:30.867Z,32.56
2023-05-06T17:17:12.147Z,32.36
2023-05-06T17:18:53.433Z,32.39
2023-05-06T17:20:47.535Z,33.35
2023-05-06T17:22:37.329Z,34.44
2023-05-06T17:24:19.057Z,33.62
2023-05-06T17:26:00.519Z,33.78
2023-05-06T17:27:42.034Z,34.61
2023-05-06T17:29:23.346Z,34.44
2023-05-06T17:31:05.012Z,33.07
2023-05-06T17:32:46.592Z,33.75
2023-05-06T17:34:27.950Z,34.42
2023-05-06T17:36:09.289Z,35.24
2023-05-06T17:37:50.580Z,34.93
2023-05-06T17:39:31.895Z,33.76
2023-05-06T17:41:13.220Z,34.71
2023-05-06T17:42:54.514Z,36.29
2023-05-06T17:44:35.841Z,36.76
2023-05-06T17:46:19.364Z,36.52
2023-05-06T17:48:00.851Z,36.76
2023-05-06T17:49:42.189Z,37.31
2023-05-06T17:51:24.210Z,38.00
2023-05-06T17:53:05.759Z,38.15
2023-05-06T17:54:49.479Z,37.74
2023-05-06T17:56:38.153Z,37.74
2023-05-06T17:58:19.450Z,38.49
2023-05-06T18:00:00.768Z,39.43
2023-05-06T18:01:42.108Z,39.18
2023-05-06T18:03:23.448Z,40.17
2023-05-06T18:05:05.602Z,40.73
2023-05-06T18:06:47.214Z,41.16
2023-05-06T18:08:28.504Z,41.49
2023-05-06T18:10:09.841Z,41.98
2023-05-06T18:11:51.183Z,41.65
2023-05-06T18:13:32.472Z,41.34
2023-05-06T18:15:13.745Z,41.02
2023-05-06T18:16:55.334Z,40.34
2023-05-06T18:18:36.852Z,38.96
2023-05-06T18:20:18.142Z,41.20
2023-05-06T18:21:59.728Z,41.82
2023-05-06T18:23:41.228Z,41.65
2023-05-06T18:25:22.556Z,42.52
2023-05-06T18:27:03.880Z,41.54
2023-05-06T18:28:45.462Z,41.38
2023-05-06T18:30:26.871Z,41.98
2023-05-06T18:32:08.401Z,41.78
2023-05-06T18:33:49.946Z,40.98
2023-05-06T18:35:31.676Z,41.41
2023-05-06T18:37:13.281Z,42.25
2023-05-06T18:38:54.592Z,43.04
2023-05-06T18:40:36.275Z,42.24
2023-05-06T18:42:17.920Z,42.74
2023-05-06T18:43:59.474Z,42.51
2023-05-06T18:45:40.817Z,41.55
2023-05-06T18:47:22.154Z,42.04
2023-05-06T18:49:03.649Z,42.53
2023-05-06T18:50:45.414Z,42.17
2023-05-06T18:52:26.974Z,42.33
2023-05-06T18:54:08.317Z,43.22
2023-05-06T18:55:49.697Z,43.24
2023-05-06T18:57:31.777Z,43.27
2023-05-06T18:59:13.270Z,42.37
2023-05-06T19:00:55.283Z,42.44
2023-05-06T19:02:37.001Z,42.84
2023-05-06T19:04:18.319Z,43.08
2023-05-06T19:05:59.645Z,43.90
2023-05-06T19:07:40.983Z,43.11
2023-05-06T19:09:22.854Z,43.34
2023-05-06T19:11:04.403Z,44.00
2023-05-06T19:12:45.754Z,47.01
2023-05-06T19:14:27.063Z,44.81
2023-05-06T19:16:08.416Z,43.63
2023-05-06T19:17:50.367Z,44.68
2023-05-06T19:19:31.994Z,45.13
2023-05-06T19:21:13.432Z,45.06
2023-05-06T19:22:54.852Z,45.10
2023-05-06T19:24:36.169Z,45.16
2023-05-06T19:26:17.437Z,45.13
2023-05-06T19:27:58.740Z,43.98
2023-05-06T19:29:40.038Z,44.82
2023-05-06T19:31:21.373Z,44.58
2023-05-06T19:33:02.853Z,44.83
2023-05-06T19:34:44.522Z,45.32
2023-05-06T19:36:26.097Z,45.98
2023-05-06T19:38:07.432Z,45.46
2023-05-06T19:39:48.944Z,46.36
2023-05-06T19:41:30.448Z,45.85
2023-05-06T19:43:12.052Z,46.18
2023-05-06T19:44:53.645Z,46.86
2023-05-06T19:46:34.985Z,46.12
2023-05-06T19:48:16.726Z,46.59
2023-05-06T19:50:01.806Z,47.28
2023-05-06T19:51:43.155Z,47.57
2023-05-06T19:53:24.469Z,47.34
2023-05-06T19:55:05.765Z,46.72
2023-05-06T19:56:47.091Z,47.31
2023-05-06T19:58:28.403Z,47.44
2023-05-06T20:00:10.000Z,46.46
2023-05-06T20:01:51.588Z,47.51
2023-05-06T20:03:33.025Z,46.68
2023-05-06T20:05:14.385Z,46.61
2023-05-06T20:06:55.676Z,46.04
2023-05-06T20:08:36.992Z,46.45
2023-05-06T20:10:18.286Z,47.75
2023-05-06T20:11:59.697Z,48.26
2023-05-06T20:13:40.998Z,47.92
2023-05-06T20:15:22.774Z,46.73
2023-05-06T20:17:04.345Z,45.53
2023-05-06T20:18:45.903Z,44.75
2023-05-06T20:20:27.579Z,44.00
2023-05-06T20:22:09.002Z,43.27
2023-05-06T20:23:50.567Z,42.25
2023-05-06T20:25:32.052Z,43.38
2023-05-06T20:27:13.491Z,44.65
2023-05-06T20:28:54.826Z,44.20
2023-05-06T20:30:36.230Z,46.12
2023-05-06T20:32:17.665Z,46.99
2023-05-06T20:33:58.959Z,47.76
2023-05-06T20:35:40.264Z,45.96
2023-05-06T20:37:21.564Z,46.69
2023-05-06T20:39:02.895Z,47.05
2023-05-06T20:40:44.431Z,47.70
2023-05-06T20:42:25.992Z,46.41
2023-05-06T20:44:07.317Z,46.29
2023-05-06T20:45:48.693Z,46.22
2023-05-06T20:47:30.268Z,46.84
2023-05-06T20:49:11.696Z,46.66
2023-05-06T20:50:52.994Z,45.94
2023-05-06T20:52:34.360Z,45.53
2023-05-06T20:54:15.952Z,47.40
2023-05-06T20:55:57.539Z,48.87
2023-05-06T20:57:38.836Z,48.21
2023-05-06T20:59:20.393Z,48.76
2023-05-06T21:01:01.932Z,51.08
2023-05-06T21:02:43.407Z,51.58
2023-05-06T21:04:24.772Z,50.75
2023-05-06T21:06:06.055Z,51.27
2023-05-06T21:07:47.391Z,50.43
2023-05-06T21:09:28.704Z,50.49
2023-05-06T21:11:10.070Z,49.91
2023-05-06T21:12:51.471Z,49.05
2023-05-06T21:14:32.790Z,49.17
2023-05-06T21:16:14.751Z,49.38
2023-05-06T21:17:56.425Z,49.22
2023-05-06T21:19:37.965Z,48.53
2023-05-06T21:21:19.375Z,47.32
2023-05-06T21:23:00.660Z,47.73
2023-05-06T21:24:42.121Z,48.40
2023-05-06T21:26:23.610Z,49.67
2023-05-06T21:28:05.160Z,50.46
2023-05-06T21:29:46.475Z,50.51
2023-05-06T21:31:27.856Z,51.22
2023-05-06T21:33:09.520Z,52.00
2023-05-06T21:34:50.975Z,51.73
2023-05-06T21:36:32.277Z,52.86
2023-05-06T21:38:13.557Z,53.32
2023-05-06T21:39:54.835Z,53.51
2023-05-06T21:41:37.030Z,52.00
2023-05-06T21:43:18.605Z,51.90
2023-05-06T21:44:59.911Z,51.93
2023-05-06T21:46:41.272Z,51.30